createdAt,value
2019-04-23T00:01:22.081Z,9.02
2019-04-23T00:03:35.691Z,8.92
2019-04-23T00:06:15.566Z,8.85
2019-04-23T00:09:04.125Z,8.71
2019-04-23T00:11:13.010Z,8.81
2019-04-23T00:13:50.325Z,8.77
2019-04-23T00:16:21.994Z,8.83
2019-04-23T00:18:46.748Z,8.95
2019-04-23T00:21:42.462Z,9.28
2019-04-23T00:24:46.359Z,9.50
2019-04-23T00:27:17.083Z,9.60
2019-04-23T00:29:38.573Z,9.68
2019-04-23T00:32:10.472Z,9.61
2019-04-23T00:34:41.435Z,9.49
2019-04-23T00:37:12.957Z,9.44
2019-04-23T00:39:42.435Z,9.45
2019-04-23T00:42:06.910Z,9.38
2019-04-23T00:44:40.382Z,9.55
2019-04-23T00:47:11.959Z,9.58
2019-04-23T00:49:46.311Z,9.66
2019-04-23T00:52:14.503Z,9.73
2019-04-23T00:54:41.108Z,9.81
2019-04-23T00:57:21.804Z,9.85
2019-04-23T00:59:50.530Z,9.94
2019-04-23T01:02:16.617Z,10.03
2019-04-23T01:04:48.021Z,10.18
2019-04-23T01:07:18.730Z,10.26
2019-04-23T01:09:52.435Z,10.25
2019-04-23T01:12:23.721Z,10.29
2019-04-23T01:14:56.359Z,10.31
2019-04-23T01:17:35.140Z,10.31
2019-04-23T01:20:08.454Z,10.32
2019-04-23T01:22:23.185Z,10.35
2019-04-23T01:25:24.708Z,10.26
2019-04-23T01:28:22.828Z,10.30
2019-04-23T01:30:57.012Z,10.31
2019-04-23T01:38:31.071Z,10.25
2019-04-23T01:40:55.474Z,10.23
2019-04-23T01:43:30.810Z,10.22
2019-04-23T01:45:54.663Z,10.25
2019-04-23T01:48:36.311Z,10.16
2019-04-23T01:50:56.024Z,10.12
2019-04-23T01:53:37.361Z,10.16
2019-04-23T01:56:19.749Z,10.17
2019-04-23T02:01:09.464Z,10.14
2019-04-23T02:03:56.091Z,10.10
2019-04-23T02:06:07.121Z,10.11
2019-04-23T02:08:40.195Z,10.11
2019-04-23T02:11:09.835Z,10.04
2019-04-23T02:13:42.032Z,10.04
2019-04-23T02:16:10.474Z,10.07
2019-04-23T02:18:49.332Z,10.04
2019-04-23T02:21:14.893Z,10.07
2019-04-23T02:24:08.660Z,10.09
2019-04-23T02:26:36.917Z,10.08
2019-04-23T02:29:03.352Z,10.13
2019-04-23T02:36:40.473Z,10.11
2019-04-23T02:39:01.037Z,10.07
2019-04-23T02:41:41.487Z,10.01
2019-04-23T02:44:19.839Z,9.99
2019-04-23T02:46:43.845Z,9.89
2019-04-23T02:49:35.893Z,9.82
2019-04-23T02:51:48.876Z,9.77
2019-04-23T02:54:36.721Z,9.75
2019-04-23T02:59:25.518Z,9.51
2019-04-23T03:01:39.349Z,9.52
2019-04-23T03:04:33.928Z,9.43
2019-04-23T03:06:46.293Z,9.36
2019-04-23T03:09:23.673Z,9.39
2019-04-23T03:11:58.420Z,9.27
2019-04-23T03:19:49.783Z,9.28
2019-04-23T03:22:28.749Z,9.28
2019-04-23T03:25:10.925Z,9.32
2019-04-23T03:27:37.472Z,9.35
2019-04-23T03:33:39.168Z,9.31
2019-04-23T03:36:10.715Z,9.46
2019-04-23T03:43:01.178Z,9.47
2019-04-23T03:47:52.086Z,9.45
2019-04-23T03:50:23.435Z,9.38
2019-04-23T03:55:27.892Z,9.41
2019-04-23T04:05:32.889Z,9.45
2019-04-23T04:10:28.902Z,9.50
2019-04-23T04:13:00.109Z,9.55
2019-04-23T04:18:17.942Z,9.58
2019-04-23T04:20:39.892Z,9.62
2019-04-23T04:23:19.216Z,9.65
2019-04-23T04:38:40.189Z,10.47
2019-04-23T04:48:35.553Z,10.92
2019-04-23T04:56:07.723Z,10.73
2019-04-23T04:58:32.522Z,10.68
2019-04-23T05:01:16.590Z,10.75
2019-04-23T05:08:38.283Z,10.57
2019-04-23T05:11:21.520Z,10.47
2019-04-23T05:13:43.565Z,10.46
2019-04-23T05:16:08.037Z,10.47
2019-04-23T05:21:12.564Z,10.49
2019-04-23T05:23:48.551Z,10.56
2019-04-23T05:26:20.909Z,10.63
2019-04-23T05:33:52.182Z,10.84
2019-04-23T05:36:28.554Z,10.98
2019-04-23T05:43:58.068Z,11.14
2019-04-23T05:46:32.802Z,11.28
2019-04-23T05:49:00.049Z,11.31
2019-04-23T05:53:58.425Z,11.54
2019-04-23T05:56:27.743Z,11.58
2019-04-23T06:04:17.580Z,11.87
2019-04-23T06:09:13.943Z,12.04
2019-04-23T06:11:51.200Z,12.02
2019-04-23T06:19:16.912Z,12.18
2019-04-23T06:22:00.306Z,12.38
2019-04-23T06:24:29.126Z,12.44
2019-04-23T06:26:54.365Z,12.54
2019-04-23T06:29:26.017Z,12.60
2019-04-23T06:31:55.302Z,12.56
2019-04-23T06:34:24.784Z,12.54
2019-04-23T06:36:51.193Z,12.59
2019-04-23T06:39:33.149Z,12.60
2019-04-23T06:41:54.807Z,12.71
2019-04-23T06:44:31.898Z,12.76
2019-04-23T06:47:03.573Z,12.85
2019-04-23T06:49:37.002Z,12.94
2019-04-23T06:54:42.878Z,12.96
2019-04-23T06:57:14.608Z,13.04
2019-04-23T06:59:39.066Z,13.13
2019-04-23T07:04:43.549Z,13.31
2019-04-23T07:07:31.390Z,13.40
2019-04-23T07:09:38.939Z,13.34
2019-04-23T07:12:10.431Z,13.32
2019-04-23T07:14:51.542Z,13.41
2019-04-23T07:17:24.910Z,13.43
2019-04-23T07:22:16.001Z,13.55
2019-04-23T07:24:51.060Z,13.52
2019-04-23T07:27:22.661Z,13.50
2019-04-23T07:29:56.560Z,13.52
2019-04-23T07:32:23.641Z,13.60
2019-04-23T07:35:04.515Z,13.77
2019-04-23T07:37:27.227Z,13.91
2019-04-23T07:42:59.990Z,13.93
2019-04-23T07:45:47.180Z,13.89
2019-04-23T07:48:22.392Z,14.09
2019-04-23T07:50:53.519Z,14.19
2019-04-23T07:53:48.336Z,14.19
2019-04-23T07:56:05.447Z,14.25
2019-04-23T08:00:57.041Z,14.24
2019-04-23T08:03:31.301Z,14.32
2019-04-23T08:06:00.987Z,14.38
2019-04-23T08:08:30.221Z,14.57
2019-04-23T08:11:30.478Z,14.53
2019-04-23T08:18:45.337Z,14.72
2019-04-23T08:23:57.226Z,14.86
2019-04-23T08:26:38.055Z,14.93
2019-04-23T08:29:10.155Z,14.94
2019-04-23T08:31:43.627Z,14.97
2019-04-23T08:34:17.140Z,15.03
2019-04-23T08:36:44.445Z,15.10
2019-04-23T08:39:14.110Z,15.15
2019-04-23T08:42:01.341Z,15.19
2019-04-23T08:44:23.242Z,15.34
2019-04-23T08:49:29.634Z,15.71
2019-04-23T08:54:42.869Z,15.68
2019-04-23T08:57:04.094Z,15.70
2019-04-23T08:59:38.749Z,15.88
2019-04-23T09:04:45.519Z,15.92
2019-04-23T09:07:11.344Z,15.92
2019-04-23T09:12:10.371Z,16.34
2019-04-23T09:14:42.180Z,16.31
2019-04-23T09:17:11.393Z,16.32
2019-04-23T09:19:55.872Z,16.35
2019-04-23T09:22:14.622Z,16.34
2019-04-23T09:24:43.140Z,16.38
2019-04-23T09:27:18.045Z,16.38
2019-04-23T09:30:00.980Z,16.47
2019-04-23T09:32:36.407Z,16.52
2019-04-23T09:35:30.830Z,16.68
2019-04-23T09:38:07.263Z,16.66
2019-04-23T09:43:46.014Z,16.88
2019-04-23T09:51:30.226Z,17.10
2019-04-23T09:54:04.368Z,17.30
2019-04-23T09:56:36.222Z,17.42
2019-04-23T09:59:09.184Z,17.25
2019-04-23T10:01:36.347Z,17.29
2019-04-23T10:03:50.837Z,17.32
2019-04-23T10:06:16.185Z,17.17
2019-04-23T10:08:44.935Z,17.21
2019-04-23T10:11:11.829Z,17.33
2019-04-23T10:13:42.910Z,17.58
2019-04-23T10:16:15.387Z,17.38
2019-04-23T10:18:42.466Z,17.44
2019-04-23T10:21:11.309Z,17.39
2019-04-23T10:23:43.276Z,17.45
2019-04-23T10:26:12.240Z,17.75
2019-04-23T10:28:47.684Z,17.77
2019-04-23T10:31:18.692Z,17.81
2019-04-23T10:33:48.177Z,17.84
2019-04-23T10:36:21.489Z,17.83
2019-04-23T10:38:54.864Z,17.86
2019-04-23T10:41:18.488Z,17.83
2019-04-23T10:43:58.713Z,17.80
2019-04-23T10:47:03.761Z,17.64
2019-04-23T10:54:57.643Z,18.09
2019-04-23T10:57:16.697Z,18.29
2019-04-23T11:02:40.273Z,18.92
2019-04-23T11:05:00.446Z,19.06
2019-04-23T11:07:31.051Z,18.91
2019-04-23T11:12:44.554Z,19.16
2019-04-23T11:15:44.147Z,18.91
2019-04-23T11:17:47.569Z,18.78
2019-04-23T11:20:30.332Z,18.88
2019-04-23T11:22:51.772Z,18.92
2019-04-23T11:25:32.956Z,19.27
2019-04-23T11:28:02.959Z,19.51
2019-04-23T11:30:33.289Z,19.39
2019-04-23T11:35:45.944Z,18.87
2019-04-23T11:38:28.040Z,18.68
2019-04-23T11:45:41.729Z,18.86
2019-04-23T11:51:05.130Z,18.91
2019-04-23T11:55:44.844Z,19.00
2019-04-23T12:01:02.236Z,19.01
2019-04-23T12:03:17.687Z,18.88
2019-04-23T12:06:16.933Z,19.02
2019-04-23T12:09:09.915Z,19.04
2019-04-23T12:22:17.968Z,19.58
2019-04-23T12:25:07.726Z,19.51
2019-04-23T12:27:17.209Z,19.34
2019-04-23T12:29:52.280Z,19.36
2019-04-23T12:32:43.225Z,19.47
2019-04-23T12:34:59.406Z,19.58
2019-04-23T12:42:58.714Z,20.03
2019-04-23T12:45:34.005Z,19.97
2019-04-23T13:00:29.596Z,20.36
2019-04-23T13:02:48.654Z,20.61
2019-04-23T13:07:54.041Z,20.20
2019-04-23T13:13:09.452Z,20.14
2019-04-23T13:17:55.539Z,20.23
2019-04-23T13:20:27.317Z,20.13
2019-04-23T13:23:05.217Z,20.11
2019-04-23T13:25:55.515Z,20.01
2019-04-23T13:28:21.712Z,20.01
2019-04-23T13:33:31.890Z,20.41
2019-04-23T13:46:10.011Z,20.41
2019-04-23T13:51:00.218Z,20.36
2019-04-23T13:55:56.718Z,20.36
2019-04-23T13:58:26.527Z,20.42
2019-04-23T14:03:38.141Z,20.43
2019-04-23T14:06:16.561Z,20.56
2019-04-23T14:08:53.804Z,20.68
2019-04-23T14:11:21.278Z,20.84
2019-04-23T14:13:49.695Z,20.82
2019-04-23T14:16:21.225Z,21.03
2019-04-23T14:21:20.295Z,20.86
2019-04-23T14:24:08.256Z,20.94
2019-04-23T14:28:46.440Z,21.38
2019-04-23T14:31:37.324Z,21.52
2019-04-23T14:39:07.847Z,21.49
2019-04-23T14:41:35.924Z,21.41
2019-04-23T14:49:26.099Z,21.12
2019-04-23T14:51:46.403Z,21.32
2019-04-23T14:54:17.329Z,21.56
2019-04-23T14:56:44.933Z,21.62
2019-04-23T14:59:19.880Z,21.53
2019-04-23T15:04:13.249Z,21.66
2019-04-23T15:06:51.612Z,21.56
2019-04-23T15:09:22.860Z,21.47
2019-04-23T15:11:57.076Z,21.56
2019-04-23T15:14:19.438Z,21.61
2019-04-23T15:16:56.391Z,21.90
2019-04-23T15:19:45.362Z,22.05
2019-04-23T15:22:04.802Z,22.18
2019-04-23T15:24:30.498Z,21.88
2019-04-23T15:28:01.970Z,21.73
2019-04-23T15:29:20.118Z,21.45
2019-04-23T15:32:14.869Z,21.28
2019-04-23T15:34:32.737Z,21.14
2019-04-23T15:44:41.795Z,21.17
2019-04-23T15:47:19.251Z,21.21
2019-04-23T15:49:45.475Z,21.31
2019-04-23T15:52:10.634Z,21.26
2019-04-23T15:54:51.480Z,21.44
2019-04-23T15:57:28.382Z,21.72
2019-04-23T15:59:48.179Z,21.84
2019-04-23T16:01:54.078Z,21.82
2019-04-23T16:04:24.111Z,21.84
2019-04-23T16:06:54.008Z,21.75
2019-04-23T16:09:59.773Z,21.64
2019-04-23T16:12:24.615Z,21.67
2019-04-23T16:15:05.831Z,21.78
2019-04-23T16:17:37.198Z,21.64
2019-04-23T16:25:13.362Z,21.33
2019-04-23T16:27:52.568Z,21.31
2019-04-23T16:33:02.508Z,21.28
2019-04-23T16:38:18.008Z,21.13
2019-04-23T16:43:13.185Z,20.96
2019-04-23T16:45:49.411Z,20.92
2019-04-23T16:48:26.304Z,20.84
2019-04-23T16:51:03.976Z,20.75
2019-04-23T16:53:25.177Z,20.71
2019-04-23T16:55:50.023Z,20.69
2019-04-23T16:59:13.528Z,20.64
2019-04-23T17:11:09.730Z,20.23
2019-04-23T17:13:34.495Z,20.14
2019-04-23T17:18:41.721Z,20.07
2019-04-23T17:21:04.706Z,20.05
2019-04-23T17:26:13.491Z,19.90
2019-04-23T17:28:39.486Z,19.80
2019-04-23T17:33:48.154Z,19.43
2019-04-23T17:36:36.316Z,19.05
2019-04-23T17:39:14.552Z,18.79
2019-04-23T17:44:38.759Z,18.41
2019-04-23T17:47:13.777Z,18.38
2019-04-23T17:49:52.364Z,18.30
2019-04-23T17:52:22.329Z,18.17
2019-04-23T17:54:50.115Z,18.15
2019-04-23T17:57:26.383Z,18.08
2019-04-23T18:00:08.155Z,18.00
2019-04-23T18:07:38.039Z,17.92
2019-04-23T18:10:15.013Z,17.78
2019-04-23T18:15:00.773Z,17.74
2019-04-23T18:20:16.281Z,17.55
2019-04-23T18:22:54.013Z,17.48
2019-04-23T18:31:07.780Z,17.36
2019-04-23T18:34:05.400Z,17.27
2019-04-23T18:36:08.073Z,17.23
2019-04-23T18:38:50.073Z,17.16
2019-04-23T18:41:27.305Z,17.14
2019-04-23T18:44:05.855Z,17.19
2019-04-23T18:48:50.115Z,17.06
2019-04-23T18:51:21.422Z,17.00
2019-04-23T18:53:52.986Z,17.00
2019-04-23T18:56:23.426Z,16.87
2019-04-23T18:59:03.952Z,16.74
2019-04-23T19:01:34.145Z,16.67
2019-04-23T19:04:29.272Z,16.59
2019-04-23T19:06:48.566Z,16.64
2019-04-23T19:10:09.682Z,16.71
2019-04-23T19:12:35.052Z,16.60
2019-04-23T19:15:09.441Z,16.61
2019-04-23T19:17:46.391Z,16.40
2019-04-23T19:22:46.965Z,16.34
2019-04-23T19:25:09.672Z,16.21
2019-04-23T19:27:40.482Z,15.99
2019-04-23T19:30:44.687Z,15.97
2019-04-23T19:33:18.290Z,16.02
2019-04-23T19:36:01.395Z,16.07
2019-04-23T19:38:17.722Z,15.94
2019-04-23T19:40:46.731Z,15.96
2019-04-23T19:43:15.020Z,16.01
2019-04-23T19:46:02.124Z,15.96
2019-04-23T19:48:25.636Z,15.85
2019-04-23T19:50:57.291Z,15.83
2019-04-23T19:53:36.301Z,15.67
2019-04-23T19:58:38.489Z,15.64
2019-04-23T20:06:51.094Z,15.53
2019-04-23T20:09:30.746Z,15.57
2019-04-23T20:11:52.670Z,15.51
2019-04-23T20:14:18.409Z,15.42
2019-04-23T20:17:04.436Z,15.50
2019-04-23T20:19:37.613Z,15.44
2019-04-23T20:22:06.223Z,15.43
2019-04-23T20:27:14.011Z,15.47
2019-04-23T20:31:39.361Z,15.42
2019-04-23T20:33:17.275Z,15.43
2019-04-23T20:35:45.000Z,15.40
2019-04-23T20:38:17.360Z,15.52
2019-04-23T20:40:31.140Z,15.43
2019-04-23T20:42:52.631Z,15.41
2019-04-23T20:45:28.521Z,15.37
2019-04-23T20:47:56.261Z,15.31
2019-04-23T20:50:26.223Z,15.21
2019-04-23T20:52:59.927Z,15.13
2019-04-23T20:55:49.449Z,15.20
2019-04-23T20:58:14.262Z,15.15
2019-04-23T21:01:21.877Z,15.09
2019-04-23T21:03:55.193Z,15.24
2019-04-23T21:06:33.865Z,15.27
2019-04-23T21:11:24.947Z,15.35
2019-04-23T21:16:31.356Z,15.52
2019-04-23T21:19:02.532Z,15.54
2019-04-23T21:21:42.980Z,15.56
2019-04-23T21:24:01.664Z,15.57
2019-04-23T21:26:42.305Z,15.61
2019-04-23T21:29:16.958Z,15.68
2019-04-23T21:31:48.589Z,15.70
2019-04-23T21:34:21.598Z,15.64
2019-04-23T21:36:48.184Z,15.70
2019-04-23T21:39:59.654Z,15.83
2019-04-23T21:42:22.618Z,15.89
2019-04-23T21:44:52.652Z,15.97
2019-04-23T21:47:28.198Z,15.84
2019-04-23T21:50:05.891Z,15.89
2019-04-23T21:52:25.227Z,16.07
2019-04-23T21:55:02.396Z,16.09
2019-04-23T21:59:59.196Z,16.06
2019-04-23T22:02:36.185Z,15.99
2019-04-23T22:05:16.090Z,15.91
2019-04-23T22:07:51.672Z,15.88
2019-04-23T22:13:00.026Z,15.85
2019-04-23T22:15:13.016Z,15.79
2019-04-23T22:17:44.836Z,15.83
2019-04-23T22:25:22.071Z,15.81
2019-04-23T22:28:12.859Z,15.83
2019-04-23T22:30:36.581Z,15.76
2019-04-23T22:33:09.505Z,15.78
2019-04-23T22:38:13.278Z,15.75
2019-04-23T22:40:47.185Z,15.72
2019-04-23T22:43:14.559Z,15.66
2019-04-23T22:45:53.228Z,15.61
2019-04-23T22:48:13.757Z,15.62
2019-04-23T22:50:59.226Z,15.62
2019-04-23T22:58:23.416Z,15.59
2019-04-23T23:01:19.681Z,15.59
2019-04-23T23:03:51.628Z,15.52
2019-04-23T23:06:20.251Z,15.39
2019-04-23T23:09:02.636Z,15.33
2019-04-23T23:11:17.362Z,15.25
2019-04-23T23:14:04.600Z,15.24
2019-04-23T23:16:23.312Z,15.20
2019-04-23T23:18:59.754Z,15.19
2019-04-23T23:21:22.637Z,15.13
2019-04-23T23:23:59.398Z,15.21
2019-04-23T23:26:35.560Z,15.24
2019-04-23T23:29:06.370Z,15.26
2019-04-23T23:31:30.201Z,15.20
2019-04-23T23:34:09.839Z,15.18
2019-04-23T23:36:41.721Z,15.12
2019-04-23T23:39:18.096Z,15.06
2019-04-23T23:41:46.905Z,15.06
2019-04-23T23:44:27.668Z,15.03
2019-04-23T23:51:44.806Z,14.92
2019-04-23T23:56:58.316Z,14.89
2019-04-23T23:59:51.574Z,14.85
